Time;durP1;ratioP1;P1;durP2;ratioP2;P2;SDS_P1;SDS_P2;PMS_P1;PMS_P2;Temp;Humidity;BMP_temperature;BMP_pressure;BME280_temperature;BME280_humidity;BME280_pressure;Samples;Min_cycle;Max_cycle;Signal;HPM_P1;HPM_P2
2021/05/31 00:00:48;;;;;;;7.70;5.18;;;;;;;12.88;92.38;100563.94;5051015;28;20203;-73
2021/05/31 00:03:16;;;;;;;6.68;5.07;;;;;;;12.89;92.67;100567.47;5052506;28;20111;-71
2021/05/31 00:05:44;;;;;;;7.63;5.70;;;;;;;12.93;91.83;100560.09;5052654;28;20452;-72
2021/05/31 00:08:12;;;;;;;9.05;5.60;;;;;;;12.96;91.54;100560.75;5052516;28;20041;-71
2021/05/31 00:10:40;;;;;;;7.22;5.57;;;;;;;13.02;91.63;100555.00;5052204;28;20426;-71
2021/05/31 00:13:09;;;;;;;10.30;6.28;;;;;;;13.11;91.96;100554.38;5052682;28;20073;-71
2021/05/31 00:15:37;;;;;;;7.28;5.43;;;;;;;13.10;91.17;100560.72;5052389;28;20072;-71
2021/05/31 00:18:05;;;;;;;8.48;5.90;;;;;;;13.09;91.13;100550.09;5052544;28;20472;-72
2021/05/31 00:20:35;;;;;;;8.95;5.70;;;;;;;12.97;91.77;100554.44;5052312;28;20072;-70
2021/05/31 00:23:02;;;;;;;8.45;5.88;;;;;;;12.95;92.19;100551.03;5052436;28;20045;-74
2021/05/31 00:25:30;;;;;;;8.57;6.15;;;;;;;12.95;91.60;100545.66;5052274;28;20048;-76
2021/05/31 00:27:58;;;;;;;9.05;5.60;;;;;;;12.95;91.57;100545.66;5052637;28;20041;-74
2021/05/31 00:30:26;;;;;;;9.90;5.90;;;;;;;13.00;91.43;100546.22;5052652;28;20037;-73
2021/05/31 00:32:54;;;;;;;8.20;5.72;;;;;;;13.11;91.52;100538.31;5050715;28;20069;-74
2021/05/31 00:35:25;;;;;;;10.07;5.78;;;;;;;13.16;90.23;100533.53;5052137;28;20037;-73
2021/05/31 00:37:55;;;;;;;8.20;5.70;;;;;;;13.18;89.58;100534.28;5054567;28;20502;-72
2021/05/31 00:40:24;;;;;;;9.63;5.47;;;;;;;13.14;90.21;100535.47;5056339;28;20379;-72
2021/05/31 00:42:52;;;;;;;7.60;5.55;;;;;;;13.12;90.05;100540.06;5055889;28;20576;-70
2021/05/31 00:45:21;;;;;;;9.07;6.38;;;;;;;13.14;88.01;100527.41;5056076;28;20053;-75
2021/05/31 00:47:50;;;;;;;8.07;5.90;;;;;;;13.14;87.76;100526.56;5055580;28;20556;-75
2021/05/31 00:50:19;;;;;;;9.25;6.43;;;;;;;12.99;89.89;100525.75;5055995;28;20482;-75
2021/05/31 00:52:47;;;;;;;9.32;6.28;;;;;;;13.01;88.56;100523.81;5055671;28;20554;-76
2021/05/31 00:55:15;;;;;;;9.80;6.40;;;;;;;12.90;88.90;100518.31;5055161;28;20414;-76
2021/05/31 00:57:43;;;;;;;9.43;6.40;;;;;;;12.88;88.82;100517.56;5055589;28;20041;-72
2021/05/31 01:00:15;;;;;;;10.18;6.05;;;;;;;13.01;88.03;100515.78;5055720;28;20045;-70
2021/05/31 01:02:45;;;;;;;7.32;5.65;;;;;;;13.03;88.71;100508.53;5055358;28;20192;-72
2021/05/31 01:05:14;;;;;;;9.15;6.32;;;;;;;12.95;89.29;100508.19;5055933;28;20041;-71
2021/05/31 01:07:45;;;;;;;8.10;6.10;;;;;;;12.90;90.62;100499.56;5055442;28;20037;-71
2021/05/31 01:10:18;;;;;;;11.13;5.97;;;;;;;12.86;90.40;100503.44;5055529;28;20040;-72
2021/05/31 01:12:54;;;;;;;9.25;6.13;;;;;;;12.84;89.91;100508.03;5055167;28;20045;-72
2021/05/31 01:15:26;;;;;;;8.63;5.88;;;;;;;12.78;90.37;100500.38;5055500;28;20116;-72
2021/05/31 01:18:02;;;;;;;7.20;5.55;;;;;;;12.79;89.08;100511.00;5055141;28;20056;-72
2021/05/31 01:20:51;;;;;;;8.48;5.88;;;;;;;12.81;88.71;100500.19;5055245;28;20055;-72
2021/05/31 01:23:21;;;;;;;7.55;5.25;;;;;;;13.16;86.64;100505.88;5054267;28;20056;-72
2021/05/31 01:25:55;;;;;;;8.80;6.13;;;;;;;13.10;86.67;100514.31;5054826;28;20072;-72
2021/05/31 01:28:52;;;;;;;9.30;5.70;;;;;;;13.05;87.56;100509.28;5055452;28;20068;-72
2021/05/31 01:31:28;;;;;;;9.50;6.97;;;;;;;12.89;88.30;100504.06;5055362;28;20045;-72
2021/05/31 01:33:58;;;;;;;8.15;6.05;;;;;;;12.86;89.05;100508.78;5054808;28;20495;-71
2021/05/31 01:36:28;;;;;;;10.32;5.78;;;;;;;12.83;88.84;100503.59;5055183;28;20098;-71
2021/05/31 01:38:56;;;;;;;8.50;5.75;;;;;;;12.72;89.62;100503.44;5054832;28;20144;-71
2021/05/31 01:41:25;;;;;;;9.98;6.07;;;;;;;12.80;89.32;100503.81;5055080;28;20383;-71
2021/05/31 01:43:54;;;;;;;9.10;6.07;;;;;;;12.89;88.41;100504.06;5054753;28;20055;-71
2021/05/31 01:46:22;;;;;;;10.02;6.60;;;;;;;12.75;89.75;100506.81;5053448;28;20045;-72
2021/05/31 01:48:55;;;;;;;8.50;6.05;;;;;;;12.78;91.07;100497.72;5054480;28;20099;-72
2021/05/31 01:51:23;;;;;;;9.48;6.10;;;;;;;13.02;88.01;100498.75;5054888;28;20049;-72
2021/05/31 01:53:52;;;;;;;8.88;6.13;;;;;;;12.83;89.65;100490.22;5054549;28;20044;-73
2021/05/31 01:56:21;;;;;;;9.68;6.57;;;;;;;12.75;91.56;100493.44;5054521;28;20458;-74
2021/05/31 01:58:51;;;;;;;8.35;6.38;;;;;;;12.81;90.33;100490.31;5054385;28;20048;-74
2021/05/31 02:01:21;;;;;;;10.85;6.40;;;;;;;12.71;91.34;100485.69;5054834;28;20081;-74
2021/05/31 02:03:49;;;;;;;8.50;6.05;;;;;;;12.70;91.05;100492.84;5054196;28;20075;-75
2021/05/31 02:06:16;;;;;;;7.65;5.68;;;;;;;13.00;88.25;100495.31;5054640;28;20048;-71
2021/05/31 02:08:44;;;;;;;10.50;6.15;;;;;;;13.03;87.30;100484.44;5054170;28;20045;-71
2021/05/31 02:11:21;;;;;;;8.32;5.70;;;;;;;13.04;87.24;100487.97;5054432;28;20482;-77
2021/05/31 02:13:53;;;;;;;9.55;6.18;;;;;;;12.86;88.18;100487.38;5054345;28;20053;-77
2021/05/31 02:16:26;;;;;;;8.48;5.88;;;;;;;12.79;90.72;100478.00;5054362;28;20444;-71
2021/05/31 02:18:55;;;;;;;8.38;6.03;;;;;;;12.67;90.81;100481.50;5053902;28;20521;-71
2021/05/31 02:21:25;;;;;;;9.73;6.38;;;;;;;12.58;92.10;100481.13;5054110;28;20049;-72
2021/05/31 02:23:53;;;;;;;8.70;6.32;;;;;;;12.53;91.65;100472.53;5053795;28;20079;-72
2021/05/31 02:26:22;;;;;;;9.25;6.30;;;;;;;12.52;92.20;100478.84;5054277;28;20048;-74
2021/05/31 02:28:50;;;;;;;8.48;5.80;;;;;;;12.80;89.64;100482.41;5053998;28;20433;-74
2021/05/31 02:31:19;;;;;;;10.40;6.45;;;;;;;12.75;89.96;100479.19;5054177;28;20504;-74
2021/05/31 02:33:49;;;;;;;8.63;6.20;;;;;;;12.91;89.04;100479.88;5053599;28;20040;-74
2021/05/31 02:36:17;;;;;;;9.30;6.43;;;;;;;12.74;90.39;100482.78;5054066;28;20478;-74
2021/05/31 02:38:46;;;;;;;10.07;6.63;;;;;;;12.89;89.92;100481.78;5053669;28;20045;-71
2021/05/31 02:41:13;;;;;;;9.20;5.90;;;;;;;12.78;90.97;100476.28;5053912;28;20072;-72
2021/05/31 02:43:44;;;;;;;8.77;6.47;;;;;;;12.68;91.34;100470.69;5053225;28;20135;-72
2021/05/31 02:46:12;;;;;;;11.73;6.95;;;;;;;12.75;91.57;100474.69;5053864;28;20040;-71
2021/05/31 02:48:40;;;;;;;9.18;6.40;;;;;;;12.78;91.51;100478.97;5053224;28;20087;-73
2021/05/31 02:51:09;;;;;;;10.82;6.40;;;;;;;12.64;92.63;100476.31;5053749;28;20049;-71
2021/05/31 02:53:37;;;;;;;10.55;6.72;;;;;;;12.56;93.45;100475.03;5053612;28;20489;-72
2021/05/31 02:56:07;;;;;;;10.07;6.68;;;;;;;12.58;93.78;100470.44;5053740;28;20044;-72
2021/05/31 02:58:35;;;;;;;10.82;6.43;;;;;;;12.62;93.29;100481.78;5053570;28;20099;-72
2021/05/31 03:01:03;;;;;;;9.73;5.82;;;;;;;12.66;91.16;100469.09;5052505;28;20069;-72
2021/05/31 03:03:30;;;;;;;8.68;5.88;;;;;;;12.61;91.05;100472.91;5053157;28;20091;-75
2021/05/31 03:05:58;;;;;;;8.90;6.18;;;;;;;12.57;89.82;100475.88;5053044;28;20444;-74
2021/05/31 03:08:28;;;;;;;8.05;5.82;;;;;;;12.40;90.72;100474.28;5053758;28;20103;-74
2021/05/31 03:10:55;;;;;;;9.20;6.22;;;;;;;12.44;90.92;100467.78;5052774;28;20482;-74
2021/05/31 03:13:23;;;;;;;8.43;5.88;;;;;;;12.35;91.00;100463.00;5053398;28;20076;-75
2021/05/31 03:15:52;;;;;;;8.35;6.20;;;;;;;12.29;91.72;100466.09;5052909;28;20072;-73
2021/05/31 03:18:22;;;;;;;10.25;6.38;;;;;;;12.23;92.95;100461.13;5053576;28;20068;-76
2021/05/31 03:20:50;;;;;;;8.35;6.13;;;;;;;12.44;89.65;100459.75;5053006;28;20040;-76
2021/05/31 03:23:18;;;;;;;8.45;6.28;;;;;;;12.38;90.12;100464.66;5053167;28;20478;-75
2021/05/31 03:25:47;;;;;;;8.95;6.35;;;;;;;12.33;90.12;100463.13;5052662;28;20052;-74
2021/05/31 03:28:15;;;;;;;8.20;5.60;;;;;;;12.31;89.21;100470.38;5053109;28;20041;-76
2021/05/31 03:30:42;;;;;;;8.55;5.90;;;;;;;12.24;89.06;100474.41;5052573;28;20052;-77
2021/05/31 03:33:10;;;;;;;8.43;5.35;;;;;;;12.32;87.71;100471.25;5053131;28;20500;-77
2021/05/31 03:35:38;;;;;;;8.63;5.72;;;;;;;12.24;87.54;100470.88;5053169;28;20076;-75
2021/05/31 03:38:07;;;;;;;7.10;5.43;;;;;;;12.27;86.27;100473.38;5052599;28;20045;-76
2021/05/31 03:40:35;;;;;;;9.57;5.80;;;;;;;12.07;87.42;100482.66;5053249;28;20048;-75
2021/05/31 03:43:04;;;;;;;6.97;4.97;;;;;;;12.16;86.08;100475.84;5052488;28;20064;-77
2021/05/31 03:45:32;;;;;;;8.07;5.90;;;;;;;12.06;86.74;100480.03;5053083;28;20055;-76
2021/05/31 03:48:00;;;;;;;8.73;5.57;;;;;;;12.02;86.33;100476.72;5052513;28;20045;-76
2021/05/31 03:50:31;;;;;;;7.43;4.82;;;;;;;12.18;84.92;100468.59;5053014;28;20095;-75
2021/05/31 03:52:59;;;;;;;6.53;5.10;;;;;;;12.18;84.10;100474.81;5052410;28;20045;-76
2021/05/31 03:55:27;;;;;;;7.40;5.03;;;;;;;12.16;83.95;100475.84;5053157;28;20048;-75
2021/05/31 03:57:55;;;;;;;7.82;4.85;;;;;;;12.15;83.70;100469.63;5052437;28;20048;-75
2021/05/31 04:00:27;;;;;;;8.55;4.90;;;;;;;12.18;83.60;100468.59;5051643;28;20406;-74
2021/05/31 04:02:56;;;;;;;6.80;4.63;;;;;;;12.29;83.99;100469.63;5052358;28;20099;-74
2021/05/31 04:05:30;;;;;;;6.97;5.00;;;;;;;12.12;83.95;100468.97;5052451;28;20409;-75
2021/05/31 04:13:29;;;;;;;8.90;4.60;;;;;;;12.33;81.76;100467.59;5056735;28;20424;-76
2021/05/31 04:15:58;;;;;;;8.90;4.63;;;;;;;12.36;82.12;100467.44;5056310;28;20044;-78
2021/05/31 04:18:25;;;;;;;7.47;5.18;;;;;;;12.45;82.17;100464.16;5056470;28;20231;-77
2021/05/31 04:20:53;;;;;;;6.07;4.85;;;;;;;12.59;81.62;100471.28;5056302;28;20037;-73
2021/05/31 04:23:21;;;;;;;6.38;4.93;;;;;;;12.77;80.95;100467.41;5056568;28;20067;-73
2021/05/31 04:25:48;;;;;;;6.75;5.10;;;;;;;12.81;80.05;100460.88;5056199;28;20497;-69
2021/05/31 04:28:16;;;;;;;8.90;4.63;;;;;;;12.91;80.02;100469.16;5056469;28;20098;-69
2021/05/31 04:30:44;;;;;;;10.13;5.03;;;;;;;12.87;80.03;100467.66;5056175;28;20049;-74
2021/05/31 04:33:13;;;;;;;6.30;4.75;;;;;;;12.83;80.23;100466.13;5056128;28;20119;-75
2021/05/31 04:35:41;;;;;;;6.15;4.53;;;;;;;12.80;80.66;100467.19;5056158;28;20410;-75
2021/05/31 04:38:08;;;;;;;7.35;4.60;;;;;;;12.81;80.39;100470.72;5056135;28;20033;-75
2021/05/31 04:40:36;;;;;;;10.93;5.80;;;;;;;12.91;80.73;100461.13;5056033;28;20049;-75
2021/05/31 04:43:04;;;;;;;8.38;4.82;;;;;;;13.07;79.56;100464.50;5055681;28;20037;-73
2021/05/31 04:45:34;;;;;;;8.82;5.25;;;;;;;13.02;80.02;100468.44;5055969;28;20536;-76
2021/05/31 04:48:02;;;;;;;8.55;5.07;;;;;;;13.08;79.64;100460.88;5054488;28;20099;-75
2021/05/31 04:50:31;;;;;;;8.90;5.55;;;;;;;13.06;80.46;100461.94;5055961;28;20037;-76
2021/05/31 04:52:59;;;;;;;10.60;5.32;;;;;;;13.24;80.46;100466.09;5055498;28;20072;-72
2021/05/31 04:55:27;;;;;;;9.23;5.30;;;;;;;13.10;81.16;100458.94;5055876;28;20045;-73
2021/05/31 04:57:54;;;;;;;9.93;5.45;;;;;;;12.94;81.51;100458.28;5055518;28;20041;-73
2021/05/31 05:00:22;;;;;;;9.15;5.07;;;;;;;13.00;80.44;100449.81;5055849;28;20041;-74
2021/05/31 05:02:50;;;;;;;8.60;5.68;;;;;;;12.97;80.89;100458.06;5055608;28;20047;-76
2021/05/31 05:05:18;;;;;;;10.00;5.45;;;;;;;13.04;79.18;100459.38;5056504;28;20037;-74
2021/05/31 05:07:48;;;;;;;8.50;6.05;;;;;;;13.01;78.66;100454.19;5055616;28;20425;-77
2021/05/31 05:10:19;;;;;;;8.82;6.30;;;;;;;13.01;79.32;100456.03;5055671;28;20462;-77
2021/05/31 05:12:49;;;;;;;10.75;6.03;;;;;;;13.00;79.15;100451.63;5055792;28;20067;-76
2021/05/31 05:15:19;;;;;;;8.15;5.43;;;;;;;13.15;78.86;100456.81;5055690;28;20041;-77
2021/05/31 05:17:48;;;;;;;8.50;5.70;;;;;;;13.03;79.12;100451.44;5055349;28;20406;-76
2021/05/31 05:20:17;;;;;;;8.27;5.85;;;;;;;13.24;78.91;100455.38;5055454;28;20486;-75
2021/05/31 05:22:45;;;;;;;10.40;5.93;;;;;;;13.14;80.35;100457.78;5054966;28;20045;-77
2021/05/31 05:25:15;;;;;;;10.30;5.70;;;;;;;13.11;80.87;100455.28;5055016;28;20106;-76
2021/05/31 05:27:43;;;;;;;8.60;5.35;;;;;;;13.21;80.23;100457.38;5055246;28;20052;-75
2021/05/31 05:30:17;;;;;;;6.78;5.25;;;;;;;13.21;79.70;100452.03;5054917;28;20079;-77
2021/05/31 05:32:48;;;;;;;9.95;5.28;;;;;;;13.34;80.68;100464.50;5055319;28;20041;-77
2021/05/31 05:35:22;;;;;;;10.90;6.05;;;;;;;13.23;81.61;100458.16;5054932;28;20048;-81
2021/05/31 05:38:02;;;;;;;9.10;5.18;;;;;;;13.38;81.35;100463.31;5054726;28;20098;-76
2021/05/31 05:43:47;;;;;;;8.07;5.07;;;;;;;13.55;80.96;100472.03;5055070;28;20132;-78
2021/05/31 05:46:32;;;;;;;9.85;5.53;;;;;;;13.44;81.94;100467.41;5055030;28;20044;-74
2021/05/31 05:49:00;;;;;;;7.97;5.00;;;;;;;13.49;81.99;100477.78;5053345;28;20053;-74
2021/05/31 05:51:27;;;;;;;9.10;5.68;;;;;;;13.57;82.42;100473.63;5053443;28;20053;-71
2021/05/31 05:53:59;;;;;;;10.40;5.85;;;;;;;13.54;83.19;100471.16;5054191;28;20067;-70
2021/05/31 05:56:29;;;;;;;10.85;6.30;;;;;;;13.64;82.22;100479.44;5054714;28;20041;-70
2021/05/31 05:58:57;;;;;;;10.45;5.85;;;;;;;13.75;81.63;100477.72;5049671;28;20041;-76
2021/05/31 06:01:26;;;;;;;11.70;6.00;;;;;;;13.82;82.12;100477.31;5051501;28;20041;-70
2021/05/31 06:03:54;;;;;;;9.73;6.05;;;;;;;14.05;82.00;100479.22;5053910;28;20045;-77
2021/05/31 06:06:25;;;;;;;10.85;5.40;;;;;;;14.17;79.93;100478.31;5055019;28;20170;-79
2021/05/31 06:08:53;;;;;;;8.90;5.95;;;;;;;14.07;80.47;100477.25;5054603;28;20128;-78
2021/05/31 06:11:21;;;;;;;7.88;5.47;;;;;;;14.10;80.31;100471.72;5054724;28;20087;-73
2021/05/31 06:13:52;;;;;;;8.05;5.63;;;;;;;14.35;79.35;100469.94;5054006;28;20044;-73
2021/05/31 06:16:22;;;;;;;8.45;5.57;;;;;;;14.46;78.71;100472.72;5054524;28;20540;-74
2021/05/31 06:18:51;;;;;;;8.35;5.65;;;;;;;14.37;78.25;100471.53;5054432;28;20041;-73
2021/05/31 06:21:19;;;;;;;10.32;5.60;;;;;;;14.48;78.49;100471.66;5054197;28;20409;-73
2021/05/31 06:23:47;;;;;;;7.80;4.88;;;;;;;14.33;76.62;100462.84;5053977;28;20056;-77
2021/05/31 06:26:15;;;;;;;7.68;4.80;;;;;;;14.29;76.82;100472.09;5054398;28;20045;-78
2021/05/31 06:28:44;;;;;;;6.93;4.65;;;;;;;14.21;77.31;100469.09;5054291;28;20041;-77
2021/05/31 06:31:13;;;;;;;6.70;4.63;;;;;;;14.30;75.42;100456.84;5054309;28;20049;-77
2021/05/31 06:33:41;;;;;;;11.00;4.85;;;;;;;14.42;74.72;100460.47;5053451;28;20044;-77
2021/05/31 06:36:10;;;;;;;7.75;5.28;;;;;;;14.53;74.96;100457.88;5053174;28;20056;-77
2021/05/31 06:38:38;;;;;;;10.73;4.50;;;;;;;14.40;73.99;100467.78;5054299;28;20068;-76
2021/05/31 06:41:06;;;;;;;7.85;4.57;;;;;;;14.74;72.75;100467.03;5054221;28;20055;-76
2021/05/31 06:43:38;;;;;;;7.97;4.63;;;;;;;14.95;70.94;100469.09;5053793;28;20053;-77
2021/05/31 06:46:07;;;;;;;6.60;4.05;;;;;;;15.21;68.04;100465.31;5053853;28;20045;-78
2021/05/31 06:48:37;;;;;;;9.80;4.43;;;;;;;15.49;67.75;100480.19;5053762;28;20490;-74
2021/05/31 06:51:06;;;;;;;6.10;3.83;;;;;;;15.69;66.67;100475.97;5053950;28;20049;-75
2021/05/31 06:53:35;;;;;;;8.80;4.10;;;;;;;15.53;66.83;100475.41;5053344;28;20049;-73
2021/05/31 06:56:03;;;;;;;9.55;4.60;;;;;;;15.17;67.68;100480.81;5053845;28;20041;-74
2021/05/31 06:58:32;;;;;;;8.38;4.05;;;;;;;15.34;67.08;100479.50;5053193;28;20037;-76
2021/05/31 07:00:59;;;;;;;11.63;4.45;;;;;;;15.20;66.88;100478.88;5053552;28;20056;-72
2021/05/31 07:03:27;;;;;;;10.48;3.83;;;;;;;15.21;67.42;100480.56;5052964;28;20178;-71
2021/05/31 07:05:57;;;;;;;7.35;3.78;;;;;;;15.03;66.84;100477.44;5053771;28;20043;-78
2021/05/31 07:08:26;;;;;;;5.60;3.30;;;;;;;15.21;64.99;100481.44;5053910;28;20386;-75
2021/05/31 07:10:56;;;;;;;6.53;3.38;;;;;;;15.42;64.83;100474.41;5053915;28;20041;-75
2021/05/31 07:13:24;;;;;;;5.43;3.30;;;;;;;15.40;63.81;100473.69;5053701;28;20068;-76
2021/05/31 07:15:52;;;;;;;6.82;3.17;;;;;;;15.34;64.75;100479.50;5053257;28;20573;-76
2021/05/31 07:18:21;;;;;;;6.75;3.40;;;;;;;15.32;64.94;100464.47;5053278;28;20091;-77
2021/05/31 07:20:49;;;;;;;7.13;3.30;;;;;;;15.41;64.92;100474.53;5053399;28;20099;-76
2021/05/31 07:23:19;;;;;;;5.85;3.00;;;;;;;15.48;63.14;100474.94;5053091;28;20131;-78
2021/05/31 07:25:47;;;;;;;5.38;2.70;;;;;;;15.41;64.06;100478.06;5053196;28;20123;-74
2021/05/31 07:28:16;;;;;;;5.32;2.70;;;;;;;15.36;64.65;100480.28;5056804;28;20049;-76
2021/05/31 07:30:44;;;;;;;5.70;2.63;;;;;;;15.31;64.23;100486.97;5053145;28;20137;-74
2021/05/31 07:33:13;;;;;;;6.97;2.80;;;;;;;15.24;64.77;100480.31;5052527;28;20052;-71
2021/05/31 07:35:42;;;;;;;4.65;2.55;;;;;;;15.41;64.23;100477.22;5053190;28;20127;-71
2021/05/31 07:38:11;;;;;;;5.47;2.50;;;;;;;15.33;64.55;100488.53;5052001;28;20045;-74
2021/05/31 07:40:41;;;;;;;4.75;2.90;;;;;;;15.35;64.09;100483.09;5053108;28;20052;-73
2021/05/31 07:43:09;;;;;;;5.40;2.83;;;;;;;15.74;63.79;100476.50;5052494;28;20079;-75
2021/05/31 07:45:37;;;;;;;5.03;2.83;;;;;;;15.79;63.46;100470.75;5052939;28;20102;-75
2021/05/31 07:48:06;;;;;;;4.55;2.53;;;;;;;15.70;63.58;100473.16;5052793;28;20549;-72
2021/05/31 07:50:34;;;;;;;7.60;3.08;;;;;;;15.97;62.50;100475.53;5052928;28;20049;-74
2021/05/31 07:53:07;;;;;;;6.93;3.13;;;;;;;15.97;62.39;100472.84;5052682;28;20055;-72
2021/05/31 07:55:35;;;;;;;5.13;2.72;;;;;;;16.09;61.77;100467.44;5052989;28;20111;-74
2021/05/31 07:58:09;;;;;;;6.50;2.42;;;;;;;16.07;60.35;100470.28;5052715;28;20037;-75
2021/05/31 08:00:37;;;;;;;5.28;2.72;;;;;;;16.26;60.56;100475.03;5052658;28;20128;-74
2021/05/31 08:03:05;;;;;;;6.82;2.92;;;;;;;16.20;60.10;100464.75;5052464;28;20049;-73
2021/05/31 08:05:33;;;;;;;4.90;2.35;;;;;;;16.43;59.78;100477.22;5052562;28;20040;-74
2021/05/31 08:08:00;;;;;;;4.13;2.58;;;;;;;16.30;58.07;100471.09;5052708;28;20046;-76
2021/05/31 08:10:28;;;;;;;5.18;2.78;;;;;;;16.36;58.10;100472.47;5052912;28;20454;-73
2021/05/31 08:12:56;;;;;;;5.47;3.00;;;;;;;16.50;58.89;100465.00;5052441;28;20052;-75
2021/05/31 08:15:25;;;;;;;7.90;2.70;;;;;;;16.47;58.58;100467.91;5052782;28;20045;-77
2021/05/31 08:17:54;;;;;;;7.03;3.20;;;;;;;16.47;58.64;100461.69;5052757;28;20047;-74
2021/05/31 08:20:22;;;;;;;7.60;3.33;;;;;;;16.70;58.02;100463.41;5052452;28;20043;-73
2021/05/31 08:22:50;;;;;;;5.25;2.90;;;;;;;16.69;57.71;100467.03;5052538;28;20120;-75
2021/05/31 08:25:18;;;;;;;5.35;2.65;;;;;;;17.02;56.78;100460.72;5052485;28;20120;-75
2021/05/31 08:27:46;;;;;;;4.88;2.97;;;;;;;16.99;57.72;100458.28;5052416;28;20080;-76
2021/05/31 08:30:16;;;;;;;5.03;2.75;;;;;;;17.44;57.06;100461.59;5052079;28;20073;-75
2021/05/31 08:32:45;;;;;;;5.20;2.80;;;;;;;17.55;55.64;100465.22;5052422;28;20098;-75
2021/05/31 08:35:16;;;;;;;4.13;2.63;;;;;;;17.91;55.00;100463.91;5052542;28;20091;-76
2021/05/31 08:37:45;;;;;;;4.63;2.55;;;;;;;18.00;54.12;100457.72;5052500;28;20052;-73
2021/05/31 08:40:13;;;;;;;6.45;2.55;;;;;;;17.86;54.17;100447.28;5052455;28;20048;-73
2021/05/31 08:42:42;;;;;;;4.25;2.65;;;;;;;17.66;54.85;100447.16;5052500;28;20104;-76
2021/05/31 08:45:12;;;;;;;3.92;2.60;;;;;;;17.89;54.32;100450.56;5052220;28;20053;-76
2021/05/31 08:47:42;;;;;;;7.75;2.60;;;;;;;18.15;52.69;100439.31;5052508;28;20037;-73
2021/05/31 08:50:14;;;;;;;4.18;2.33;;;;;;;18.12;51.19;100437.72;5052220;28;20398;-76
2021/05/31 08:52:44;;;;;;;3.85;2.33;;;;;;;18.13;52.04;100433.19;5052340;28;20059;-76
2021/05/31 08:55:17;;;;;;;7.40;2.70;;;;;;;18.06;50.45;100432.88;5052128;28;20044;-75
2021/05/31 08:57:45;;;;;;;4.15;2.28;;;;;;;17.69;52.30;100437.94;5053470;28;20047;-74
2021/05/31 09:00:16;;;;;;;4.57;2.45;;;;;;;17.85;51.01;100429.34;5056042;28;20061;-73
2021/05/31 09:02:44;;;;;;;6.43;2.13;;;;;;;18.19;51.00;100432.66;5062471;28;20405;-77
2021/05/31 09:05:14;;;;;;;3.20;1.70;;;;;;;17.90;49.49;100432.53;5072091;28;20051;-75
2021/05/31 09:07:48;;;;;;;4.68;2.00;;;;;;;18.03;49.90;100427.75;5057854;28;20072;-76
2021/05/31 09:10:17;;;;;;;3.50;2.20;;;;;;;18.22;48.08;100433.22;5056380;28;20049;-73
2021/05/31 09:12:46;;;;;;;4.25;2.30;;;;;;;18.07;49.06;100439.13;5056144;28;20048;-76
2021/05/31 09:15:14;;;;;;;3.65;2.17;;;;;;;18.14;48.98;100427.63;5056076;28;20087;-75
2021/05/31 09:17:42;;;;;;;3.00;2.10;;;;;;;18.42;48.05;100423.31;5055830;28;20045;-78
2021/05/31 09:20:11;;;;;;;4.97;2.30;;;;;;;18.36;48.19;100417.66;5055654;28;20517;-74
2021/05/31 09:22:48;;;;;;;4.15;2.13;;;;;;;18.51;49.50;100421.63;5055441;28;20041;-75
2021/05/31 09:25:25;;;;;;;4.80;2.25;;;;;;;18.88;47.89;100420.03;5055412;28;20049;-73
2021/05/31 09:27:53;;;;;;;4.85;2.10;;;;;;;18.88;46.77;100425.44;5055757;28;20032;-74
2021/05/31 09:30:36;;;;;;;3.65;2.33;;;;;;;18.93;46.29;100418.75;5056141;28;20102;-74
2021/05/31 09:33:08;;;;;;;5.25;2.28;;;;;;;18.48;46.10;100405.72;5058132;28;20037;-73
2021/05/31 09:35:39;;;;;;;4.68;2.30;;;;;;;18.30;46.82;100409.09;5057900;28;20048;-70
2021/05/31 09:38:09;;;;;;;7.75;2.50;;;;;;;18.53;45.68;100403.47;5055953;28;20045;-72
2021/05/31 09:40:38;;;;;;;4.28;2.25;;;;;;;18.65;46.19;100410.47;5056453;28;20461;-72
2021/05/31 09:43:06;;;;;;;3.83;2.22;;;;;;;18.46;46.55;100405.88;5056886;28;20071;-75
2021/05/31 09:45:40;;;;;;;5.55;1.95;;;;;;;18.62;42.11;100405.31;5057835;28;20076;-74
2021/05/31 09:48:08;;;;;;;4.63;2.20;;;;;;;18.77;41.84;100405.78;5059278;28;20457;-75
2021/05/31 09:50:36;;;;;;;4.93;2.10;;;;;;;18.69;41.11;100414.59;5058547;28;20037;-76
2021/05/31 09:53:07;;;;;;;3.03;1.83;;;;;;;18.63;41.23;100393.53;5057338;28;20052;-76
2021/05/31 09:55:39;;;;;;;3.25;2.00;;;;;;;18.96;42.41;100389.59;5056480;28;20033;-74
2021/05/31 09:58:12;;;;;;;4.88;2.10;;;;;;;19.07;42.53;100385.88;5054608;28;20052;-73
2021/05/31 10:00:46;;;;;;;4.15;2.00;;;;;;;19.10;41.09;100394.53;5054953;28;20499;-74
2021/05/31 10:03:25;;;;;;;4.38;1.92;;;;;;;19.07;40.75;100388.59;5054508;28;20091;-72
2021/05/31 10:06:04;;;;;;;3.38;1.90;;;;;;;19.42;39.53;100374.44;5054657;28;20045;-76
2021/05/31 10:08:41;;;;;;;3.83;2.00;;;;;;;19.57;39.59;100367.59;5054358;28;20044;-74
2021/05/31 10:11:12;;;;;;;2.80;1.60;;;;;;;19.94;38.47;100375.72;5054522;28;20049;-70
2021/05/31 10:13:44;;;;;;;3.47;1.90;;;;;;;19.73;37.78;100361.56;5054287;28;20052;-71
2021/05/31 10:16:12;;;;;;;4.45;1.80;;;;;;;19.57;38.29;100383.81;5054414;28;20478;-71
2021/05/31 10:18:41;;;;;;;4.35;1.85;;;;;;;19.29;38.60;100368.47;5054447;28;20061;-71
2021/05/31 10:21:13;;;;;;;5.15;2.67;;;;;;;19.50;39.29;100365.59;5054130;28;20055;-71
2021/05/31 10:23:43;;;;;;;3.75;1.63;;;;;;;19.14;38.13;100366.25;5054110;28;20037;-70
2021/05/31 10:26:13;;;;;;;3.30;1.98;;;;;;;19.16;38.08;100357.97;5054219;28;20044;-70
2021/05/31 10:28:42;;;;;;;2.80;1.92;;;;;;;19.26;38.74;100358.81;5053609;28;20051;-72
2021/05/31 10:31:12;;;;;;;3.38;1.80;;;;;;;19.61;38.96;100347.38;5053730;28;20470;-70
2021/05/31 10:33:41;;;;;;;2.67;1.80;;;;;;;19.73;39.24;100351.59;5053761;28;20128;-69
2021/05/31 10:36:15;;;;;;;3.38;1.73;;;;;;;19.68;38.83;100359.28;5054262;28;20124;-76
2021/05/31 10:38:46;;;;;;;4.18;1.80;;;;;;;19.42;38.45;100369.03;5054181;28;20037;-74
2021/05/31 10:41:18;;;;;;;2.13;1.75;;;;;;;19.55;38.79;100347.91;5054413;28;20553;-71
2021/05/31 10:43:48;;;;;;;4.90;2.03;;;;;;;19.81;38.37;100345.44;5053677;28;20049;-79
2021/05/31 10:46:19;;;;;;;5.43;1.83;;;;;;;20.10;38.83;100337.16;5053772;28;20053;-79
2021/05/31 10:48:50;;;;;;;5.32;1.92;;;;;;;19.94;37.62;100354.06;5054088;28;20055;-81
2021/05/31 10:51:20;;;;;;;4.45;1.95;;;;;;;19.59;39.73;100337.66;5054022;28;20076;-72
2021/05/31 10:53:48;;;;;;;3.97;1.60;;;;;;;19.76;39.57;100342.31;5059509;28;20091;-74
2021/05/31 10:56:26;;;;;;;3.95;2.00;;;;;;;19.52;40.54;100333.84;5053455;28;20036;-72
2021/05/31 10:58:55;;;;;;;3.22;1.90;;;;;;;18.98;42.68;100338.94;5053231;28;20128;-73
2021/05/31 11:01:37;;;;;;;3.95;2.00;;;;;;;18.51;45.21;100351.41;5053825;28;20049;-71
2021/05/31 11:04:14;;;;;;;2.80;1.85;;;;;;;18.54;48.25;100345.75;5053285;28;20045;-73
2021/05/31 11:06:44;;;;;;;3.75;2.08;;;;;;;18.39;46.03;100336.34;5051587;28;20037;-76
2021/05/31 11:09:13;;;;;;;5.70;1.90;;;;;;;18.45;44.42;100338.50;5053267;28;20041;-73
2021/05/31 11:11:44;;;;;;;3.83;1.98;;;;;;;18.63;43.17;100322.44;5053324;28;20040;-72
2021/05/31 11:14:13;;;;;;;3.53;2.05;;;;;;;18.71;42.53;100323.44;5052983;28;20044;-74
2021/05/31 11:16:54;;;;;;;2.83;1.73;;;;;;;19.05;41.67;100325.69;5052969;28;20394;-72
2021/05/31 11:19:34;;;;;;;3.90;1.90;;;;;;;19.07;39.20;100315.59;5052897;28;20509;-75
2021/05/31 11:22:16;;;;;;;5.15;2.10;;;;;;;19.40;39.88;100306.97;5052295;28;20041;-73
2021/05/31 11:24:50;;;;;;;3.17;2.10;;;;;;;19.33;39.52;100303.16;5052794;28;20086;-74
2021/05/31 11:27:21;;;;;;;3.78;1.85;;;;;;;19.46;38.96;100289.28;5052904;28;20045;-71
2021/05/31 11:29:49;;;;;;;2.85;1.60;;;;;;;19.57;36.80;100297.25;5047539;28;20044;-73
2021/05/31 11:32:18;;;;;;;4.15;2.03;;;;;;;19.89;37.43;100275.16;5052683;28;20432;-72
2021/05/31 11:34:52;;;;;;;3.75;1.95;;;;;;;19.95;37.10;100273.69;5052494;28;20494;-72
2021/05/31 11:37:21;;;;;;;3.22;1.92;;;;;;;19.57;37.41;100280.16;5052400;28;20094;-72
2021/05/31 11:39:49;;;;;;;2.95;2.00;;;;;;;19.51;38.07;100276.19;5052481;28;20045;-72
2021/05/31 11:42:19;;;;;;;4.75;1.90;;;;;;;19.56;37.78;100278.47;5052972;28;20398;-69
2021/05/31 11:44:55;;;;;;;3.20;1.90;;;;;;;19.15;41.43;100300.34;5052421;28;20049;-70